Time;durP1;ratioP1;P1;durP2;ratioP2;P2;SDS_P1;SDS_P2;PMS_P1;PMS_P2;Temp;Humidity;BMP_temperature;BMP_pressure;BME280_temperature;BME280_humidity;BME280_pressure;Samples;Min_cycle;Max_cycle;Signal;HPM_P1;HPM_P2
2022/03/09 00:00:50;;;;;;;8.23;7.43;;;4.00;27.70;;;;;;20843;6760;123663;-86
2022/03/09 00:03:26;;;;;;;10.27;9.27;;;3.90;28.50;;;;;;20553;6781;307076;-86
2022/03/09 00:06:02;;;;;;;9.70;8.70;;;3.90;28.50;;;;;;20457;6829;278379;-87
2022/03/09 00:08:38;;;;;;;8.20;7.50;;;4.20;28.00;;;;;;20503;6864;117833;-87
2022/03/09 00:11:14;;;;;;;7.90;7.20;;;4.10;28.00;;;;;;20625;6817;117593;-88
2022/03/09 00:13:50;;;;;;;8.82;8.13;;;3.90;28.10;;;;;;20457;6831;308794;-87
2022/03/09 00:16:26;;;;;;;8.47;7.63;;;4.00;28.40;;;;;;20696;6786;117009;-86
2022/03/09 00:19:03;;;;;;;8.30;7.60;;;4.00;28.20;;;;;;20837;6756;123807;-86
2022/03/09 00:21:38;;;;;;;8.07;7.23;;;3.80;28.20;;;;;;20930;6740;116803;-86
2022/03/09 00:24:16;;;;;;;9.00;8.30;;;3.70;28.40;;;;;;20646;6758;307243;-86
2022/03/09 00:26:49;;;;;;;9.18;8.48;;;3.80;28.50;;;;;;20601;6746;307456;-86
2022/03/09 00:29:25;;;;;;;9.70;8.80;;;4.20;28.20;;;;;;20606;6759;336549;-87
2022/03/09 00:32:01;;;;;;;7.67;7.07;;;4.60;28.00;;;;;;20744;6756;116907;-87
2022/03/09 00:34:36;;;;;;;7.70;7.10;;;4.40;27.80;;;;;;20766;6778;116867;-87
2022/03/09 00:37:12;;;;;;;8.60;8.00;;;4.10;28.00;;;;;;20451;6793;283413;-87
2022/03/09 00:39:47;;;;;;;8.05;7.53;;;4.10;28.40;;;;;;20530;6818;315770;-88
2022/03/09 00:42:23;;;;;;;8.30;7.70;;;4.40;28.30;;;;;;20505;6779;328381;-87
2022/03/09 00:44:59;;;;;;;8.30;7.60;;;4.90;27.80;;;;;;20588;6786;324737;-87
2022/03/09 00:47:35;;;;;;;8.80;8.10;;;4.80;27.70;;;;;;20475;6760;310397;-87
2022/03/09 00:50:10;;;;;;;7.33;6.73;;;5.00;27.60;;;;;;20778;6771;120679;-87
2022/03/09 00:52:47;;;;;;;8.43;7.83;;;4.80;27.70;;;;;;20538;6771;311019;-87
2022/03/09 00:55:22;;;;;;;8.73;8.07;;;4.90;28.50;;;;;;20551;6770;327216;-87
2022/03/09 00:57:58;;;;;;;8.65;7.85;;;4.90;28.50;;;;;;20459;6772;326160;-87
2022/03/09 01:00:33;;;;;;;8.73;7.93;;;5.10;28.00;;;;;;20677;6734;306991;-87
2022/03/09 01:03:09;;;;;;;7.80;7.10;;;5.10;27.60;;;;;;20858;6734;117372;-88
2022/03/09 01:05:44;;;;;;;7.90;7.30;;;4.80;27.60;;;;;;20668;6734;303203;-87
2022/03/09 01:08:20;;;;;;;7.27;6.67;;;4.70;28.00;;;;;;20721;6734;117063;-88
2022/03/09 01:10:56;;;;;;;7.57;6.90;;;4.50;28.10;;;;;;20515;6768;336148;-87
2022/03/09 01:13:32;;;;;;;7.87;7.13;;;4.50;28.30;;;;;;20610;6756;277829;-89
2022/03/09 01:16:09;;;;;;;7.57;7.03;;;4.90;28.20;;;;;;20566;6756;306800;-87
2022/03/09 01:18:50;;;;;;;7.93;7.30;;;4.80;28.20;;;;;;20615;6756;281119;-87
2022/03/09 01:21:20;;;;;;;7.70;7.00;;;5.00;28.40;;;;;;20493;6812;117796;-87
2022/03/09 01:23:55;;;;;;;6.87;6.20;;;4.70;28.20;;;;;;20875;6741;117360;-87
2022/03/09 01:26:31;;;;;;;7.53;6.97;;;4.30;28.60;;;;;;20592;6752;299104;-87
2022/03/09 01:29:09;;;;;;;7.43;6.73;;;4.20;29.60;;;;;;20765;6767;118997;-88
2022/03/09 01:31:44;;;;;;;7.77;7.27;;;4.20;29.50;;;;;;20555;6775;306642;-88
2022/03/09 01:34:20;;;;;;;8.30;7.60;;;4.20;29.10;;;;;;20577;6771;278856;-87
2022/03/09 01:36:57;;;;;;;7.40;6.63;;;4.40;29.00;;;;;;20719;6769;124718;-89
2022/03/09 01:39:32;;;;;;;7.57;6.40;;;4.30;29.00;;;;;;20848;6743;117364;-87
2022/03/09 01:42:08;;;;;;;6.87;6.27;;;3.90;29.30;;;;;;20806;6763;120949;-90
2022/03/09 01:44:44;;;;;;;7.97;6.30;;;3.60;29.50;;;;;;20777;6764;117997;-87
2022/03/09 01:47:20;;;;;;;8.20;7.60;;;3.50;29.40;;;;;;20490;6771;279101;-87
2022/03/09 01:49:55;;;;;;;8.45;7.80;;;3.50;29.90;;;;;;20596;6755;306260;-87
2022/03/09 01:52:31;;;;;;;8.60;7.80;;;3.90;30.00;;;;;;20603;6755;339024;-87
2022/03/09 01:55:07;;;;;;;7.87;7.18;;;4.20;29.40;;;;;;20546;6816;339272;-87
2022/03/09 01:57:42;;;;;;;8.00;7.00;;;4.30;29.70;;;;;;20676;6755;118421;-87
2022/03/09 02:00:21;;;;;;;7.75;7.25;;;4.10;29.50;;;;;;20604;6755;328670;-88
2022/03/09 02:02:55;;;;;;;6.77;6.27;;;4.10;30.60;;;;;;20850;6740;120676;-87
2022/03/09 02:05:30;;;;;;;7.03;6.40;;;4.00;30.50;;;;;;20808;6760;117459;-88
2022/03/09 02:11:05;;;;;;;8.70;8.00;;;3.50;30.80;;;;;;20597;6755;311227;-87
2022/03/09 02:13:40;;;;;;;8.00;7.30;;;3.50;30.70;;;;;;20897;6786;117266;-87
2022/03/09 02:16:16;;;;;;;9.07;8.27;;;3.40;30.70;;;;;;20609;6755;292653;-87
2022/03/09 02:18:52;;;;;;;8.63;7.50;;;3.20;30.70;;;;;;20861;6739;117239;-87
2022/03/09 02:21:29;;;;;;;8.30;7.53;;;3.20;30.70;;;;;;20872;6740;117590;-88
2022/03/09 02:24:05;;;;;;;9.35;8.55;;;2.90;30.80;;;;;;20657;6740;306020;-87
2022/03/09 02:26:40;;;;;;;8.95;8.15;;;3.00;31.30;;;;;;20617;6740;308963;-87
2022/03/09 02:29:16;;;;;;;9.82;9.02;;;3.20;30.80;;;;;;20648;6740;277268;-87
2022/03/09 02:31:53;;;;;;;8.37;7.67;;;3.40;30.60;;;;;;20795;6760;117795;-88
2022/03/09 02:34:29;;;;;;;8.17;7.37;;;3.30;30.60;;;;;;20802;6760;117131;-87
2022/03/09 02:37:05;;;;;;;9.33;8.63;;;3.10;32.70;;;;;;20512;6753;281130;-88
2022/03/09 02:39:41;;;;;;;9.82;8.93;;;3.00;31.90;;;;;;20603;6755;310956;-90
2022/03/09 02:42:17;;;;;;;9.10;8.30;;;3.60;30.70;;;;;;20536;6780;337575;-94
2022/03/09 02:44:52;;;;;;;8.70;7.80;;;3.60;30.70;;;;;;20664;6810;124072;-92
2022/03/09 02:47:28;;;;;;;8.50;7.60;;;3.30;30.60;;;;;;20720;6783;117930;-88
2022/03/09 02:50:04;;;;;;;10.90;9.90;;;2.90;31.10;;;;;;20640;6771;310931;-87
2022/03/09 02:52:39;;;;;;;10.53;9.57;;;2.80;31.50;;;;;;20929;6756;70919;-87
2022/03/09 02:55:24;;;;;;;11.60;10.50;;;2.70;31.60;;;;;;20429;6781;340757;-92
2022/03/09 02:57:51;;;;;;;10.33;9.40;;;2.70;32.10;;;;;;20889;6668;123158;-91
2022/03/09 03:00:49;;;;;;;10.67;9.67;;;2.60;31.70;;;;;;19577;7043;314864;31
2022/03/09 03:03:22;;;;;;;11.57;10.47;;;2.70;32.30;;;;;;20464;6819;283067;-91
2022/03/09 03:05:57;;;;;;;12.87;11.63;;;3.00;32.10;;;;;;20468;6793;310930;-91
2022/03/09 03:08:33;;;;;;;13.87;12.67;;;3.20;30.30;;;;;;20416;6756;308912;-88
2022/03/09 03:11:09;;;;;;;12.00;10.60;;;3.30;30.50;;;;;;20798;6748;121598;-88
2022/03/09 03:13:45;;;;;;;11.93;10.93;;;3.00;30.60;;;;;;20594;6759;294846;-90
2022/03/09 03:16:20;;;;;;;12.47;11.27;;;2.90;31.20;;;;;;20650;6736;307125;-88
2022/03/09 03:18:58;;;;;;;13.05;11.02;;;3.10;31.60;;;;;;20614;6748;326220;-88
2022/03/09 03:21:34;;;;;;;12.52;11.25;;;3.20;30.90;;;;;;20666;6731;306928;-87
2022/03/09 03:24:09;;;;;;;12.60;11.40;;;3.30;30.90;;;;;;20675;6736;282861;-87
2022/03/09 03:26:54;;;;;;;11.73;10.50;;;3.40;31.30;;;;;;20832;6728;117068;-88
2022/03/09 03:29:22;;;;;;;12.07;10.17;;;3.20;31.10;;;;;;20840;6732;117306;-87
2022/03/09 03:31:57;;;;;;;12.63;11.52;;;2.70;31.30;;;;;;20652;6731;277232;-87
2022/03/09 03:34:34;;;;;;;12.80;11.50;;;2.70;31.90;;;;;;20634;6732;312423;-87
2022/03/09 03:37:09;;;;;;;11.03;10.03;;;3.00;31.60;;;;;;20707;6755;120437;-87
2022/03/09 03:39:45;;;;;;;11.07;9.97;;;2.90;31.50;;;;;;20753;6767;117310;-86
2022/03/09 03:42:21;;;;;;;13.40;12.03;;;2.60;31.70;;;;;;20508;6783;290395;-87
2022/03/09 03:44:56;;;;;;;12.80;11.50;;;2.70;31.70;;;;;;20511;6772;306697;-87
2022/03/09 03:47:33;;;;;;;12.37;10.90;;;2.90;31.80;;;;;;20642;6779;117849;-87
2022/03/09 03:50:09;;;;;;;13.02;11.85;;;2.80;31.80;;;;;;20548;6763;278208;-87
2022/03/09 03:52:44;;;;;;;11.97;10.80;;;2.70;31.40;;;;;;20823;6743;117252;-87
2022/03/09 03:55:20;;;;;;;13.10;11.90;;;2.60;31.40;;;;;;20632;6743;316676;-87
2022/03/09 03:57:56;;;;;;;12.43;11.40;;;2.80;32.00;;;;;;20465;6743;309759;-87
2022/03/09 04:00:32;;;;;;;11.47;10.37;;;2.80;32.00;;;;;;20743;6766;117863;-86
2022/03/09 04:03:07;;;;;;;10.07;9.17;;;2.70;31.70;;;;;;20726;6792;117392;-87
2022/03/09 04:05:43;;;;;;;12.87;11.67;;;2.30;31.90;;;;;;20527;6796;302246;-87
2022/03/09 04:08:18;;;;;;;12.70;11.60;;;2.40;32.20;;;;;;20399;6780;309475;-88
2022/03/09 04:10:54;;;;;;;12.53;10.67;;;2.70;31.80;;;;;;20691;6801;117934;-88
2022/03/09 04:13:32;;;;;;;13.77;12.47;;;2.50;31.80;;;;;;20538;6781;280109;-89
2022/03/09 04:16:08;;;;;;;13.30;12.00;;;2.50;31.80;;;;;;20556;6768;307264;-87
2022/03/09 04:18:44;;;;;;;10.67;9.70;;;2.60;31.60;;;;;;20701;6786;118034;-84
2022/03/09 04:21:20;;;;;;;11.53;9.90;;;2.40;31.70;;;;;;20737;6781;120874;-84
2022/03/09 04:23:55;;;;;;;11.93;10.57;;;2.10;32.20;;;;;;20834;6772;117007;-84
2022/03/09 04:26:31;;;;;;;13.87;12.57;;;1.80;32.70;;;;;;20477;6786;284659;-85
2022/03/09 04:29:06;;;;;;;13.70;12.50;;;1.90;33.20;;;;;;20488;6781;307642;-84
2022/03/09 04:31:43;;;;;;;13.73;12.53;;;2.20;33.50;;;;;;20505;6836;278736;-84
2022/03/09 04:34:19;;;;;;;14.13;12.80;;;2.50;32.80;;;;;;20604;6752;307839;-84
2022/03/09 04:36:54;;;;;;;11.60;10.50;;;2.70;32.40;;;;;;20650;6796;118404;-83
2022/03/09 04:39:31;;;;;;;11.53;10.43;;;2.20;33.30;;;;;;20716;6784;118086;-84
2022/03/09 04:42:06;;;;;;;14.02;12.75;;;2.10;32.50;;;;;;20447;6851;310789;-85
2022/03/09 04:44:42;;;;;;;14.25;12.95;;;2.20;32.90;;;;;;20487;6795;308891;-84
2022/03/09 04:47:17;;;;;;;12.30;11.20;;;2.40;32.70;;;;;;20663;6795;119277;-85
2022/03/09 04:49:53;;;;;;;13.20;11.67;;;2.30;32.60;;;;;;20726;6786;120368;-83
2022/03/09 04:52:29;;;;;;;14.98;13.68;;;1.90;33.30;;;;;;20606;6772;347304;-84
2022/03/09 04:55:05;;;;;;;14.80;13.48;;;1.90;33.30;;;;;;20547;6780;346947;-88
2022/03/09 04:57:43;;;;;;;12.87;11.53;;;2.00;32.90;;;;;;20694;6760;118035;-86
2022/03/09 05:00:20;;;;;;;14.83;13.33;;;2.00;32.90;;;;;;20688;6735;325138;-89
2022/03/09 05:03:05;;;;;;;;;;;;;;;;;;;;;
2022/03/09 05:05:33;;;;;;;11.63;10.53;;;2.00;33.00;;;;;;20752;6751;117363;-91
2022/03/09 05:08:16;;;;;;;;;;;;;;;;;;;;;
2022/03/09 05:10:45;;;;;;;11.87;10.80;;;1.80;33.50;;;;;;20831;6747;117644;-91
2022/03/09 05:13:20;;;;;;;14.73;13.32;;;1.90;33.80;;;;;;20536;6776;337363;-91
2022/03/09 05:15:54;;;;;;;13.43;12.00;;;1.80;33.10;;;;;;20584;6791;117374;-91
2022/03/09 05:18:43;;;;;;;;;;;;;;;;;;;;;
2022/03/09 05:21:10;;;;;;;14.43;13.02;;;1.50;33.00;;;;;;20351;6790;324028;-88
2022/03/09 05:23:47;;;;;;;14.37;12.53;;;1.70;33.40;;;;;;20547;6772;277790;-88
2022/03/09 05:26:22;;;;;;;14.00;12.70;;;2.00;33.10;;;;;;20331;6772;310178;-91
2022/03/09 05:28:59;;;;;;;11.83;10.63;;;2.30;32.80;;;;;;20847;6770;117027;-87
2022/03/09 05:31:35;;;;;;;11.33;10.23;;;2.10;32.60;;;;;;20740;6737;116252;-87
2022/03/09 05:34:10;;;;;;;11.47;10.03;;;1.80;32.90;;;;;;20842;6737;116307;-87
2022/03/09 05:36:56;;;;;;;;;;;;;;;;;;;;;
2022/03/09 05:39:21;;;;;;;14.37;12.97;;;1.40;33.60;;;;;;20740;6737;306918;-88
2022/03/09 05:41:57;;;;;;;17.50;15.70;;;1.60;34.30;;;;;;20526;6739;314115;-87
2022/03/09 05:44:33;;;;;;;20.10;17.83;;;2.00;34.00;;;;;;20447;6836;279261;-85
2022/03/09 05:47:08;;;;;;;21.47;19.13;;;2.30;33.50;;;;;;20756;6764;118806;-90
2022/03/09 05:49:44;;;;;;;28.53;24.63;;;2.20;33.20;;;;;;20677;6805;305434;-86
2022/03/09 05:52:19;;;;;;;23.37;20.87;;;2.10;32.40;;;;;;20604;6744;312378;-90
2022/03/09 05:54:58;;;;;;;17.27;15.47;;;2.30;32.90;;;;;;20925;6729;117060;-90
2022/03/09 05:57:33;;;;;;;14.90;13.30;;;1.80;33.30;;;;;;20795;6730;117080;-90
2022/03/09 06:00:09;;;;;;;13.60;11.67;;;1.80;33.30;;;;;;20716;6761;117774;-86
2022/03/09 06:02:44;;;;;;;12.47;11.27;;;1.50;33.60;;;;;;20874;6751;116805;-87
2022/03/09 06:05:20;;;;;;;14.07;12.77;;;1.30;33.90;;;;;;20688;6737;293127;-87
2022/03/09 06:07:55;;;;;;;15.90;11.60;;;1.40;34.70;;;;;;20646;6782;117158;-84
2022/03/09 06:10:31;;;;;;;13.93;12.73;;;1.50;34.40;;;;;;20652;6749;306274;-85
2022/03/09 06:13:06;;;;;;;12.20;11.07;;;1.60;34.30;;;;;;20853;6749;123580;-84
2022/03/09 06:15:44;;;;;;;15.17;13.67;;;1.80;34.10;;;;;;20653;6749;276404;-91
2022/03/09 06:18:18;;;;;;;13.83;12.53;;;1.80;34.10;;;;;;20549;6743;336628;-87
2022/03/09 06:20:55;;;;;;;12.40;10.33;;;2.10;34.10;;;;;;20896;6749;116738;-87
2022/03/09 06:23:31;;;;;;;13.57;10.60;;;2.20;34.10;;;;;;20471;6765;116792;-85
2022/03/09 06:26:08;;;;;;;16.97;11.70;;;2.00;34.30;;;;;;20802;6793;116537;-86
2022/03/09 06:28:55;;;;;;;;;;;;;;;;;;;;;
2022/03/09 06:31:20;;;;;;;12.33;11.03;;;2.10;34.00;;;;;;20705;6784;121794;-85
2022/03/09 06:33:57;;;;;;;14.33;12.97;;;2.20;34.50;;;;;;20470;6811;307482;-86
2022/03/09 06:36:42;;;;;;;13.80;12.50;;;2.30;33.60;;;;;;20577;6754;281302;-86
2022/03/09 06:39:08;;;;;;;11.37;10.27;;;2.70;33.20;;;;;;20708;6792;117743;-85
2022/03/09 06:41:44;;;;;;;13.67;12.37;;;2.70;33.20;;;;;;20435;6818;311019;-87
2022/03/09 06:44:22;;;;;;;13.73;12.50;;;2.80;33.10;;;;;;20525;6786;308277;-85
2022/03/09 06:46:57;;;;;;;12.47;11.40;;;3.40;32.20;;;;;;20423;6811;303064;-85
2022/03/09 06:49:31;;;;;;;11.90;10.90;;;3.40;32.30;;;;;;20498;6843;307583;-85
2022/03/09 06:52:10;;;;;;;13.23;12.03;;;3.70;32.00;;;;;;20482;6806;338039;-88
2022/03/09 06:54:45;;;;;;;11.60;10.50;;;4.00;32.00;;;;;;20753;6780;117864;-86
2022/03/09 06:57:21;;;;;;;12.83;11.80;;;3.90;32.10;;;;;;20645;6744;307895;-87
2022/03/09 06:59:57;;;;;;;11.73;10.63;;;4.10;32.00;;;;;;20889;6754;121869;-86
2022/03/09 07:02:33;;;;;;;13.00;11.90;;;4.30;31.40;;;;;;20639;6751;278110;-86
2022/03/09 07:05:09;;;;;;;11.33;10.33;;;4.40;31.40;;;;;;20877;6739;122547;-86
2022/03/09 07:07:44;;;;;;;11.73;9.60;;;4.40;31.40;;;;;;20730;6765;118162;-86
2022/03/09 07:10:21;;;;;;;12.90;11.60;;;4.30;31.90;;;;;;20649;6763;277993;-90
2022/03/09 07:12:57;;;;;;;12.80;11.70;;;4.40;31.70;;;;;;20490;6767;277636;-87
2022/03/09 07:15:33;;;;;;;11.63;10.60;;;4.90;31.60;;;;;;20758;6776;116409;-85
2022/03/09 07:18:19;;;;;;;;;;;;;;;;;;;;;
2022/03/09 07:20:44;;;;;;;10.73;9.53;;;4.80;31.90;;;;;;20553;6761;67775;-89
2022/03/09 07:23:21;;;;;;;11.87;10.77;;;4.60;32.20;;;;;;20340;6761;277523;-89
2022/03/09 07:25:57;;;;;;;13.00;10.07;;;4.90;31.90;;;;;;20870;6761;117612;-86
2022/03/09 07:28:32;;;;;;;12.10;9.27;;;5.00;31.80;;;;;;20704;6761;117518;-85
2022/03/09 07:31:08;;;;;;;12.77;9.57;;;4.80;32.00;;;;;;20836;6766;117520;-84
2022/03/09 07:33:44;;;;;;;13.05;11.75;;;5.00;32.20;;;;;;20496;6789;309449;-85
2022/03/09 07:36:29;;;;;;;12.60;11.30;;;5.00;32.20;;;;;;20716;6783;117775;-85
2022/03/09 07:38:56;;;;;;;10.73;9.73;;;5.10;32.20;;;;;;20861;6757;118273;-85
2022/03/09 07:41:34;;;;;;;11.20;10.17;;;5.10;32.80;;;;;;20897;6735;117100;-85
2022/03/09 07:44:10;;;;;;;12.73;11.50;;;5.10;32.60;;;;;;20632;6753;309322;-85
2022/03/09 07:46:45;;;;;;;13.27;10.57;;;5.40;31.90;;;;;;20829;6795;123037;-85
2022/03/09 07:49:21;;;;;;;12.20;11.10;;;5.50;31.80;;;;;;20733;6721;338270;-85
2022/03/09 07:52:06;;;;;;;;;;;;;;;;;;;;;
2022/03/09 07:54:42;;;;;;;;;;;;;;;;;;;;;
2022/03/09 07:57:19;;;;;;;;;;;;;;;;;;;;;
2022/03/09 07:59:45;;;;;;;13.80;12.48;;;7.00;30.90;;;;;;20471;6735;336017;-90
2022/03/09 08:02:21;;;;;;;12.67;11.47;;;6.90;30.80;;;;;;20893;6735;117123;-89
2022/03/09 08:04:56;;;;;;;13.83;11.40;;;7.10;30.80;;;;;;20826;6745;121443;-90
2022/03/09 08:07:32;;;;;;;12.33;10.33;;;7.00;30.90;;;;;;20797;6748;117571;-89
2022/03/09 08:10:09;;;;;;;12.70;11.60;;;6.90;31.00;;;;;;20731;6733;303141;-86
2022/03/09 08:12:45;;;;;;;12.00;10.47;;;7.40;30.00;;;;;;20963;6733;116368;-86
2022/03/09 08:15:26;;;;;;;11.00;10.00;;;7.30;29.90;;;;;;20850;6753;118198;-93
2022/03/09 08:18:01;;;;;;;14.03;12.63;;;7.30;30.00;;;;;;20684;6640;307578;-85
2022/03/09 08:20:41;;;;;;;14.57;13.13;;;7.60;29.20;;;;;;20606;6762;308985;-94
2022/03/09 08:23:08;;;;;;;12.53;11.27;;;8.00;28.80;;;;;;20931;6732;116272;-86
2022/03/09 08:25:43;;;;;;;13.88;12.50;;;8.10;29.00;;;;;;20761;6732;310694;-90
2022/03/09 08:28:20;;;;;;;13.80;12.53;;;8.20;28.50;;;;;;20486;6732;318501;-94
2022/03/09 08:30:57;;;;;;;12.30;11.10;;;8.60;28.30;;;;;;20826;6747;117693;-89
2022/03/09 08:33:34;;;;;;;13.00;11.90;;;8.60;28.50;;;;;;20911;6778;117716;-87
2022/03/09 08:36:11;;;;;;;12.43;11.17;;;8.30;29.50;;;;;;20922;6725;117495;-92
2022/03/09 08:38:46;;;;;;;13.50;12.40;;;8.30;29.00;;;;;;20625;6737;306582;-87
2022/03/09 08:41:25;;;;;;;14.20;12.97;;;8.90;27.60;;;;;;20613;6759;308210;-87
2022/03/09 08:43:58;;;;;;;12.70;11.50;;;8.90;27.60;;;;;;20842;6759;118013;-85
2022/03/09 08:46:33;;;;;;;12.37;11.30;;;9.00;27.90;;;;;;20746;6821;117676;-87
2022/03/09 08:49:10;;;;;;;13.67;12.47;;;9.10;27.20;;;;;;20663;6736;315589;-87
2022/03/09 08:51:45;;;;;;;11.73;10.50;;;9.10;27.20;;;;;;20900;6724;117374;-87
2022/03/09 08:54:22;;;;;;;11.53;10.33;;;9.10;27.50;;;;;;20884;6739;117195;-87
2022/03/09 08:56:57;;;;;;;12.43;11.37;;;9.10;27.80;;;;;;20570;6739;309324;-86
2022/03/09 08:59:33;;;;;;;12.02;11.12;;;9.40;26.80;;;;;;20678;6732;306193;-87
2022/03/09 09:02:09;;;;;;;10.77;9.77;;;9.80;26.50;;;;;;20909;6732;117589;-87
2022/03/09 09:04:44;;;;;;;12.53;11.43;;;9.90;26.80;;;;;;20684;6727;318393;-87
2022/03/09 09:07:20;;;;;;;12.60;11.30;;;10.10;25.90;;;;;;20820;6722;117990;-85
2022/03/09 09:09:56;;;;;;;13.40;12.20;;;10.10;25.90;;;;;;20639;6736;305763;-85
2022/03/09 09:12:33;;;;;;;12.90;11.63;;;10.30;25.40;;;;;;20846;6753;117754;-83
2022/03/09 09:15:08;;;;;;;13.60;12.20;;;10.30;25.80;;;;;;20718;6738;277101;-85
2022/03/09 09:17:43;;;;;;;12.23;11.13;;;10.40;25.60;;;;;;20825;6739;117348;-85
2022/03/09 09:20:20;;;;;;;14.03;11.70;;;10.40;25.60;;;;;;20906;6793;117123;-86
2022/03/09 09:22:55;;;;;;;13.80;12.43;;;10.30;25.80;;;;;;20675;6742;335135;-85
2022/03/09 09:25:30;;;;;;;12.40;11.20;;;10.40;25.60;;;;;;20861;6735;120484;-85
2022/03/09 09:28:06;;;;;;;13.15;11.88;;;10.60;25.90;;;;;;20429;6763;339772;-86
2022/03/09 09:30:41;;;;;;;13.38;12.10;;;10.80;26.00;;;;;;20581;6762;307758;-85
2022/03/09 09:33:21;;;;;;;13.57;12.37;;;11.50;24.60;;;;;;20636;6737;306081;-85
2022/03/09 09:35:58;;;;;;;12.13;10.90;;;11.50;24.60;;;;;;20865;6735;117352;-85
2022/03/09 09:38:35;;;;;;;12.40;11.40;;;11.50;24.90;;;;;;20443;6748;279658;-85
2022/03/09 09:41:13;;;;;;;12.80;11.77;;;11.60;24.40;;;;;;20665;6732;283324;-85
2022/03/09 09:43:46;;;;;;;12.88;11.88;;;11.90;24.00;;;;;;20689;6737;310634;-85
2022/03/09 09:46:32;;;;;;;12.70;11.45;;;12.10;24.20;;;;;;20661;6735;306572;-84
2022/03/09 09:48:59;;;;;;;11.03;10.03;;;12.30;23.60;;;;;;20916;6720;117834;-86
2022/03/09 09:51:37;;;;;;;12.82;11.70;;;12.30;23.60;;;;;;20711;6780;305149;-85
2022/03/09 09:54:11;;;;;;;12.47;11.57;;;12.50;22.80;;;;;;20733;6720;275885;-87
2022/03/09 09:56:46;;;;;;;11.60;10.50;;;12.50;23.00;;;;;;20847;6720;121253;-86
2022/03/09 09:59:22;;;;;;;10.80;9.73;;;12.40;23.30;;;;;;20905;6733;117614;-85
2022/03/09 10:01:58;;;;;;;13.20;12.10;;;12.20;23.70;;;;;;20650;6742;307118;-86
2022/03/09 10:04:33;;;;;;;12.20;11.00;;;12.20;23.30;;;;;;20782;6762;117573;-87
2022/03/09 10:07:18;;;;;;;;;;;;;;;;;;;;;
2022/03/09 10:09:47;;;;;;;13.53;12.13;;;12.40;23.10;;;;;;20596;6752;283116;-90
2022/03/09 10:12:26;;;;;;;13.53;12.13;;;12.60;23.60;;;;;;20629;6749;294400;-91
2022/03/09 10:15:02;;;;;;;13.13;11.60;;;12.90;23.50;;;;;;20777;6807;120189;-91
2022/03/09 10:17:37;;;;;;;12.53;11.20;;;12.90;23.60;;;;;;20790;6752;118354;-95
2022/03/09 10:20:16;;;;;;;11.57;10.57;;;12.80;24.00;;;;;;20756;6825;122862;-90
2022/03/09 10:22:51;;;;;;;11.80;10.83;;;12.70;24.30;;;;;;20637;6811;122039;-89
2022/03/09 10:25:26;;;;;;;12.53;11.43;;;12.60;24.30;;;;;;20685;6796;117842;-87
2022/03/09 10:28:12;;;;;;;12.67;11.57;;;12.60;24.20;;;;;;20567;6825;118401;-87
2022/03/09 10:30:47;;;;;;;14.25;13.00;;;12.50;24.10;;;;;;20614;6763;277383;-88
2022/03/09 10:33:23;;;;;;;14.57;13.27;;;12.80;22.50;;;;;;20705;6747;305578;-83
2022/03/09 10:35:58;;;;;;;13.03;11.80;;;13.20;21.90;;;;;;20921;6747;117620;-84
2022/03/09 10:38:37;;;;;;;12.67;11.47;;;13.30;22.50;;;;;;20760;6747;118271;-84
2022/03/09 10:41:13;;;;;;;14.52;13.32;;;13.20;22.70;;;;;;20697;6741;306602;-84
2022/03/09 10:43:49;;;;;;;14.63;13.13;;;13.40;22.40;;;;;;20642;6756;276210;-83
2022/03/09 10:46:24;;;;;;;14.30;13.20;;;13.70;22.10;;;;;;20669;6756;306288;-83
2022/03/09 10:49:00;;;;;;;14.87;13.45;;;14.00;21.70;;;;;;20710;6738;331036;-85
2022/03/09 10:51:49;;;;;;;13.80;12.53;;;14.30;21.30;;;;;;20817;6752;116356;-89
2022/03/09 10:54:28;;;;;;;13.73;12.40;;;14.20;21.80;;;;;;20705;6761;117469;-85
2022/03/09 10:57:13;;;;;;;13.70;12.17;;;14.00;22.10;;;;;;20778;6757;117913;-86
2022/03/09 10:59:48;;;;;;;13.87;12.47;;;13.80;22.20;;;;;;20803;6780;117601;-86
2022/03/09 11:02:24;;;;;;;12.50;11.30;;;13.60;22.20;;;;;;20899;6748;117355;-87
2022/03/09 11:05:09;;;;;;;13.60;12.27;;;13.40;22.30;;;;;;20818;6761;123421;-87
2022/03/09 11:07:45;;;;;;;15.07;13.77;;;13.40;22.70;;;;;;20556;6748;279242;-87
2022/03/09 11:10:30;;;;;;;15.53;14.13;;;13.60;22.30;;;;;;20660;6753;276074;-87
2022/03/09 11:12:57;;;;;;;15.77;14.27;;;13.90;21.20;;;;;;20656;6753;304929;-86
2022/03/09 11:15:33;;;;;;;13.77;12.47;;;14.20;21.00;;;;;;20888;6754;117250;-89
2022/03/09 11:18:08;;;;;;;13.77;12.43;;;14.20;21.30;;;;;;20688;6749;118228;-87
2022/03/09 11:20:49;;;;;;;15.35;14.05;;;14.00;21.30;;;;;;20663;6759;332769;-90
2022/03/09 11:23:24;;;;;;;15.40;14.10;;;14.00;20.80;;;;;;20554;6759;305344;-89
2022/03/09 11:26:03;;;;;;;15.07;13.60;;;14.30;21.30;;;;;;20854;6800;121995;-89
2022/03/09 11:28:40;;;;;;;14.73;12.20;;;14.20;21.30;;;;;;20639;6818;123725;-89
2022/03/09 11:31:15;;;;;;;14.50;13.20;;;14.10;21.60;;;;;;20583;6762;307056;-90
2022/03/09 11:33:51;;;;;;;15.90;14.47;;;14.20;21.50;;;;;;20449;6807;306840;-90
2022/03/09 11:36:29;;;;;;;15.03;13.73;;;14.40;20.70;;;;;;20548;6764;307871;-88
2022/03/09 11:39:05;;;;;;;15.65;14.18;;;14.60;20.70;;;;;;20497;6771;279781;-85
2022/03/09 11:41:41;;;;;;;15.23;13.93;;;14.80;20.60;;;;;;20621;6800;296123;-86
2022/03/09 11:44:29;;;;;;;;;;;;;;;;;;;;;
2022/03/09 11:47:01;;;;;;;15.25;13.95;;;15.10;19.80;;;;;;20634;6729;308560;-88
2022/03/09 11:49:52;;;;;;;13.80;12.40;;;14.90;20.00;;;;;;20739;6768;118408;-87
2022/03/09 11:52:27;;;;;;;14.47;13.07;;;14.90;20.10;;;;;;20825;6756;117478;-86
2022/03/09 11:55:02;;;;;;;13.00;11.70;;;14.50;20.10;;;;;;20833;6753;118207;-89
2022/03/09 11:58:01;;;;;;;13.83;11.60;;;14.20;20.60;;;;;;20558;6779;117929;-86
2022/03/09 12:00:37;;;;;;;13.43;12.13;;;14.00;21.00;;;;;;20803;6756;119267;-91
2022/03/09 12:03:12;;;;;;;13.07;11.77;;;13.90;21.20;;;;;;20740;6813;119945;-87
2022/03/09 12:05:48;;;;;;;13.33;12.03;;;13.80;21.50;;;;;;20831;6798;117912;-87
2022/03/09 12:08:24;;;;;;;14.00;12.80;;;13.70;21.40;;;;;;20352;6793;311412;-87
2022/03/09 12:10:59;;;;;;;11.83;10.83;;;13.90;20.70;;;;;;20730;6824;121510;-86
2022/03/09 12:13:44;;;;;;;14.45;13.25;;;14.10;21.00;;;;;;20618;6783;308797;-88
2022/03/09 12:16:22;;;;;;;14.25;13.15;;;14.30;20.80;;;;;;20629;6745;336335;-85
2022/03/09 12:19:05;;;;;;;14.40;13.10;;;14.60;20.40;;;;;;20525;6775;282931;-88
2022/03/09 12:21:50;;;;;;;14.10;13.00;;;14.90;19.80;;;;;;20620;6756;344146;-86
2022/03/09 12:24:34;;;;;;;;;;;;;;;;;;;;;
2022/03/09 12:27:00;;;;;;;13.70;12.40;;;14.90;20.50;;;;;;20483;6770;291246;-90
2022/03/09 12:29:36;;;;;;;13.83;12.77;;;14.90;20.70;;;;;;20438;6794;308245;-92
2022/03/09 12:32:11;;;;;;;13.37;12.17;;;15.10;19.70;;;;;;20876;6778;71434;-92
2022/03/09 12:38:34;;;;;;;14.07;12.98;;;14.90;20.20;;;;;;20600;6782;313346;-96
2022/03/09 12:40:59;;;;;;;13.90;12.60;;;14.80;20.40;;;;;;20885;6763;117859;-95
2022/03/09 12:43:45;;;;;;;13.40;11.70;;;14.80;20.30;;;;;;20886;6768;67213;-91
2022/03/09 12:46:21;;;;;;;12.20;11.10;;;14.60;20.30;;;;;;20964;6753;116732;-90
2022/03/09 12:49:23;;;;;;;;;;;;;;;;;;;;;
2022/03/09 12:51:59;;;;;;;12.43;11.23;;;14.30;20.20;;;;;;20709;6751;118580;-96
2022/03/09 12:54:36;;;;;;;12.97;11.97;;;14.10;20.40;;;;;;20728;6753;307128;-96
2022/03/09 12:57:23;;;;;;;12.23;11.17;;;14.60;19.50;;;;;;20611;6753;325176;-91
2022/03/09 13:00:13;;;;;;;11.47;10.47;;;14.60;19.60;;;;;;20906;6753;117393;-89
2022/03/09 13:02:49;;;;;;;12.43;11.32;;;14.60;19.60;;;;;;20547;6813;308173;-89
2022/03/09 13:05:26;;;;;;;12.17;11.27;;;14.70;19.60;;;;;;20473;6787;308659;-89
2022/03/09 13:08:17;;;;;;;11.30;10.40;;;15.10;16.90;;;;;;20549;6764;311868;-89
2022/03/09 13:10:44;;;;;;;11.70;10.80;;;15.10;16.80;;;;;;20908;6750;117463;-91
2022/03/09 13:13:20;;;;;;;10.77;9.67;;;14.90;17.20;;;;;;20856;6759;67795;-88
2022/03/09 13:16:00;;;;;;;10.40;9.43;;;14.60;17.70;;;;;;20897;6759;68131;-87
2022/03/09 13:18:38;;;;;;;9.87;9.07;;;14.40;18.20;;;;;;20598;6759;118025;-89
2022/03/09 13:21:19;;;;;;;9.80;8.93;;;14.30;18.40;;;;;;20887;6759;114889;-87
2022/03/09 13:23:49;;;;;;;10.60;9.77;;;14.10;18.60;;;;;;20932;6759;117168;-86
2022/03/09 13:26:28;;;;;;;11.35;10.55;;;14.10;19.00;;;;;;20585;6777;307277;-91
2022/03/09 13:29:04;;;;;;;10.40;9.57;;;14.30;18.40;;;;;;20823;6784;121419;-86
2022/03/09 13:31:43;;;;;;;11.43;10.63;;;14.60;18.20;;;;;;20618;6761;311072;-85
2022/03/09 13:34:23;;;;;;;11.20;10.30;;;14.60;18.20;;;;;;20833;6767;117220;-86
2022/03/09 13:37:08;;;;;;;10.20;9.20;;;14.60;18.30;;;;;;20686;6787;118037;-87